createdAt,value
2019-06-27T00:00:20.701Z,19.11
2019-06-27T00:02:50.820Z,18.98
2019-06-27T00:05:20.655Z,19.00
2019-06-27T00:07:50.769Z,18.95
2019-06-27T00:10:20.856Z,18.95
2019-06-27T00:12:50.768Z,18.81
2019-06-27T00:15:20.918Z,18.68
2019-06-27T00:17:51.073Z,18.87
2019-06-27T00:20:21.072Z,18.54
2019-06-27T00:22:52.072Z,18.62
2019-06-27T00:25:21.934Z,18.47
2019-06-27T00:27:51.929Z,18.36
2019-06-27T00:30:21.959Z,18.51
2019-06-27T00:32:51.714Z,18.44
2019-06-27T00:35:21.710Z,18.30
2019-06-27T00:37:51.640Z,18.08
2019-06-27T00:40:22.471Z,17.99
2019-06-27T00:42:52.447Z,18.09
2019-06-27T00:45:22.594Z,18.09
2019-06-27T00:47:52.430Z,18.08
2019-06-27T00:50:22.729Z,17.95
2019-06-27T00:52:52.856Z,18.16
2019-06-27T00:55:22.873Z,18.06
2019-06-27T00:57:52.914Z,18.04
2019-06-27T01:00:24.356Z,17.83
2019-06-27T01:02:54.397Z,17.88
2019-06-27T01:05:24.540Z,17.63
2019-06-27T01:07:54.444Z,17.58
2019-06-27T01:10:25.397Z,17.56
2019-06-27T01:12:56.394Z,17.73
2019-06-27T01:15:26.293Z,17.72
2019-06-27T01:17:56.141Z,17.69
2019-06-27T01:20:25.956Z,17.72
2019-06-27T01:22:55.837Z,17.84
2019-06-27T01:25:25.543Z,17.61
2019-06-27T01:27:56.189Z,17.71
2019-06-27T01:30:26.072Z,17.46
2019-06-27T01:32:55.940Z,17.66
2019-06-27T01:35:25.696Z,17.62
2019-06-27T01:37:55.473Z,17.46
2019-06-27T01:40:25.369Z,17.69
2019-06-27T01:42:55.044Z,17.83
2019-06-27T01:45:36.667Z,17.51
2019-06-27T01:48:06.596Z,17.60
2019-06-27T01:50:36.454Z,17.39
2019-06-27T01:53:06.397Z,17.19
2019-06-27T01:55:36.192Z,17.37
2019-06-27T01:58:05.999Z,17.17
2019-06-27T02:00:36.035Z,17.38
2019-06-27T02:03:06.127Z,17.38
2019-06-27T02:05:35.758Z,17.39
2019-06-27T02:08:05.816Z,17.43
2019-06-27T02:10:35.547Z,17.49
2019-06-27T02:13:05.440Z,17.28
2019-06-27T02:15:35.282Z,17.38
2019-06-27T02:18:05.111Z,17.42
2019-06-27T02:20:34.885Z,17.42
2019-06-27T02:23:04.651Z,17.29
2019-06-27T02:25:34.439Z,17.12
2019-06-27T02:28:04.792Z,17.37
2019-06-27T02:30:40.125Z,17.51
2019-06-27T02:33:11.120Z,17.32
2019-06-27T02:35:40.849Z,17.37
2019-06-27T02:38:10.778Z,17.44
2019-06-27T02:40:40.694Z,17.24
2019-06-27T02:43:10.542Z,17.23
2019-06-27T02:48:20.936Z,17.03
2019-06-27T02:50:50.704Z,17.18
2019-06-27T02:53:20.464Z,17.10
2019-06-27T02:55:53.162Z,17.18
2019-06-27T02:58:31.123Z,16.93
2019-06-27T03:00:54.497Z,17.36
2019-06-27T03:03:24.171Z,17.48
2019-06-27T03:05:53.975Z,17.31
2019-06-27T03:08:23.849Z,17.03
2019-06-27T03:10:53.662Z,17.12
2019-06-27T03:13:23.459Z,17.20
2019-06-27T03:15:53.268Z,17.27
2019-06-27T03:18:23.040Z,17.39
2019-06-27T03:20:52.874Z,17.42
2019-06-27T03:23:24.204Z,17.21
2019-06-27T03:25:54.052Z,17.05
2019-06-27T03:28:24.007Z,17.10
2019-06-27T03:30:53.772Z,17.07
2019-06-27T03:33:25.085Z,17.19
2019-06-27T03:35:54.961Z,16.94
2019-06-27T03:38:24.706Z,17.11
2019-06-27T03:40:54.478Z,17.09
2019-06-27T03:43:24.163Z,17.14
2019-06-27T03:45:53.862Z,17.21
2019-06-27T03:48:23.621Z,17.34
2019-06-27T03:50:56.189Z,17.19
2019-06-27T03:53:24.889Z,17.29
2019-06-27T03:55:54.713Z,17.51
2019-06-27T03:58:24.484Z,17.17
2019-06-27T04:00:54.242Z,17.57
2019-06-27T04:03:25.407Z,17.41
2019-06-27T04:05:55.236Z,17.35
2019-06-27T04:08:25.343Z,17.26
2019-06-27T04:10:56.297Z,17.59
2019-06-27T04:13:26.018Z,17.32
2019-06-27T04:15:55.858Z,17.43
2019-06-27T04:18:25.972Z,17.45
2019-06-27T04:20:55.820Z,17.37
2019-06-27T04:23:28.589Z,17.23
2019-06-27T04:25:58.464Z,17.03
2019-06-27T04:28:28.273Z,17.18
2019-06-27T04:31:00.079Z,17.41
2019-06-27T04:33:29.738Z,17.48
2019-06-27T04:35:59.495Z,17.41
2019-06-27T04:38:29.292Z,17.20
2019-06-27T04:40:59.081Z,17.53
2019-06-27T04:43:28.785Z,17.73
2019-06-27T04:45:58.494Z,17.75
2019-06-27T04:48:28.269Z,17.55
2019-06-27T04:50:58.113Z,17.62
2019-06-27T04:53:27.903Z,17.89
2019-06-27T04:55:57.705Z,17.87
2019-06-27T04:58:27.667Z,17.41
2019-06-27T05:00:57.353Z,17.52
2019-06-27T05:03:27.219Z,18.11
2019-06-27T05:05:56.950Z,18.09
2019-06-27T05:08:26.690Z,18.04
2019-06-27T05:10:56.351Z,18.17
2019-06-27T05:13:26.237Z,17.89
2019-06-27T05:15:56.297Z,17.86
2019-06-27T05:18:25.997Z,17.79
2019-06-27T05:20:55.755Z,17.98
2019-06-27T05:23:25.473Z,18.12
2019-06-27T05:25:55.227Z,17.68
2019-06-27T05:28:25.145Z,18.06
2019-06-27T05:30:54.862Z,18.35
2019-06-27T05:33:24.605Z,18.05
2019-06-27T05:35:54.711Z,18.18
2019-06-27T05:38:24.523Z,17.94
2019-06-27T05:40:54.266Z,18.31
2019-06-27T05:43:24.097Z,18.38
2019-06-27T05:45:53.820Z,17.84
2019-06-27T05:48:23.652Z,17.90
2019-06-27T05:50:53.348Z,18.17
2019-06-27T05:53:23.121Z,18.18
2019-06-27T05:55:53.705Z,18.51
2019-06-27T05:58:23.642Z,18.25
2019-06-27T06:00:53.673Z,18.29
2019-06-27T06:03:24.840Z,17.89
2019-06-27T06:05:54.715Z,17.59
2019-06-27T06:08:24.591Z,17.91
2019-06-27T06:10:54.427Z,17.83
2019-06-27T06:13:24.147Z,17.76
2019-06-27T06:15:54.125Z,17.45
2019-06-27T06:18:23.958Z,17.72
2019-06-27T06:20:53.840Z,17.95
2019-06-27T06:23:23.791Z,18.07
2019-06-27T06:25:53.781Z,18.17
2019-06-27T06:28:23.725Z,17.75
2019-06-27T06:30:53.799Z,17.97
2019-06-27T06:33:23.500Z,18.49
2019-06-27T06:35:53.426Z,18.12
2019-06-27T06:38:23.104Z,18.59
2019-06-27T06:40:53.097Z,18.47
2019-06-27T06:43:23.108Z,18.49
2019-06-27T06:45:53.048Z,19.07
2019-06-27T06:48:22.861Z,18.95
2019-06-27T06:50:52.517Z,19.96
2019-06-27T06:53:22.285Z,20.09
2019-06-27T06:55:52.157Z,20.02
2019-06-27T06:58:21.979Z,20.27
2019-06-27T07:01:01.436Z,19.23
2019-06-27T07:03:23.503Z,19.03
2019-06-27T07:05:53.245Z,18.86
2019-06-27T07:08:23.018Z,19.56
2019-06-27T07:10:52.777Z,19.63
2019-06-27T07:13:22.907Z,19.91
2019-06-27T07:15:52.628Z,20.11
2019-06-27T07:18:22.536Z,20.01
2019-06-27T07:20:52.419Z,19.48
2019-06-27T07:23:22.313Z,19.90
2019-06-27T07:25:52.084Z,19.49
2019-06-27T07:28:21.895Z,19.58
2019-06-27T07:30:52.014Z,20.14
2019-06-27T07:33:21.986Z,19.65
2019-06-27T07:35:52.085Z,20.49
2019-06-27T07:38:21.780Z,21.25
2019-06-27T07:40:51.581Z,21.24
2019-06-27T07:43:21.338Z,20.83
2019-06-27T07:45:51.236Z,20.51
2019-06-27T07:48:21.195Z,19.85
2019-06-27T07:50:51.001Z,20.29
2019-06-27T07:53:20.799Z,20.27
2019-06-27T07:55:50.707Z,20.75
2019-06-27T07:58:20.718Z,20.43
2019-06-27T08:00:50.485Z,20.57
2019-06-27T08:03:20.255Z,20.70
2019-06-27T08:05:50.059Z,20.86
2019-06-27T08:08:20.123Z,21.11
2019-06-27T08:10:49.880Z,20.80
2019-06-27T08:13:19.657Z,21.18
2019-06-27T08:15:49.304Z,22.04
2019-06-27T08:18:19.061Z,22.54
2019-06-27T08:20:48.998Z,23.66
2019-06-27T08:23:18.743Z,23.92
2019-06-27T08:25:48.521Z,25.00
2019-06-27T08:28:18.315Z,26.18
2019-06-27T08:30:48.192Z,27.73
2019-06-27T08:33:17.976Z,28.63
2019-06-27T08:35:47.646Z,28.43
2019-06-27T08:38:17.593Z,26.55
2019-06-27T08:40:47.312Z,26.02
2019-06-27T08:43:17.249Z,28.46
2019-06-27T08:45:47.121Z,28.90
2019-06-27T08:48:16.983Z,28.05
2019-06-27T08:50:46.853Z,28.48
2019-06-27T08:53:16.664Z,29.19
2019-06-27T08:55:46.507Z,32.24
2019-06-27T08:58:16.535Z,32.24
2019-06-27T09:00:46.293Z,30.30
2019-06-27T09:03:16.019Z,31.24
2019-06-27T09:05:45.965Z,31.25
2019-06-27T09:08:15.916Z,30.45
2019-06-27T09:10:46.034Z,30.45
2019-06-27T09:13:15.715Z,29.32
2019-06-27T09:15:45.505Z,29.23
2019-06-27T09:18:15.410Z,29.30
2019-06-27T09:20:45.500Z,30.74
2019-06-27T09:23:15.376Z,30.68
2019-06-27T09:25:45.135Z,30.94
2019-06-27T09:28:14.823Z,30.94
2019-06-27T09:30:44.800Z,29.49
2019-06-27T09:33:14.640Z,30.31
2019-06-27T09:35:44.350Z,29.13
2019-06-27T09:38:14.212Z,28.78
2019-06-27T09:40:44.003Z,28.38
2019-06-27T09:43:13.788Z,28.69
2019-06-27T09:45:43.761Z,29.60
2019-06-27T09:48:13.373Z,28.20
2019-06-27T09:50:43.235Z,27.24
2019-06-27T09:53:13.029Z,28.65
2019-06-27T09:55:42.752Z,28.85
2019-06-27T09:58:12.527Z,29.04
2019-06-27T10:00:42.345Z,27.97
2019-06-27T10:03:12.103Z,28.38
2019-06-27T10:05:42.080Z,26.99
2019-06-27T10:08:11.878Z,27.48
2019-06-27T10:10:42.064Z,27.36
2019-06-27T10:13:12.236Z,26.45
2019-06-27T10:15:42.082Z,26.26
2019-06-27T10:18:11.941Z,25.32
2019-06-27T10:20:41.605Z,25.50
2019-06-27T10:23:15.676Z,25.21
2019-06-27T10:25:45.611Z,25.02
2019-06-27T10:28:15.642Z,25.46
2019-06-27T10:30:49.145Z,25.34
2019-06-27T10:33:20.493Z,25.30
2019-06-27T10:35:50.509Z,25.87
2019-06-27T10:38:21.221Z,25.60
2019-06-27T10:40:50.932Z,25.11
2019-06-27T10:43:20.773Z,24.57
2019-06-27T10:45:50.518Z,24.94
2019-06-27T10:48:20.288Z,25.68
2019-06-27T10:50:50.134Z,26.12
2019-06-27T10:53:19.946Z,26.09
2019-06-27T10:55:49.709Z,25.53
2019-06-27T10:58:19.446Z,25.47
2019-06-27T11:00:49.530Z,25.34
2019-06-27T11:03:19.425Z,25.58
2019-06-27T11:05:49.147Z,25.30
2019-06-27T11:08:19.049Z,25.35
2019-06-27T11:10:48.785Z,25.13
2019-06-27T11:13:18.668Z,25.24
2019-06-27T11:15:49.416Z,25.57
2019-06-27T11:18:21.455Z,25.26
2019-06-27T11:20:51.304Z,25.39
2019-06-27T11:23:21.122Z,26.11
2019-06-27T11:25:51.243Z,25.96
2019-06-27T11:28:21.135Z,25.92
2019-06-27T11:30:50.984Z,25.62
2019-06-27T11:33:31.841Z,25.28
2019-06-27T11:35:52.324Z,25.81
2019-06-27T11:38:22.249Z,25.61
2019-06-27T11:40:52.130Z,25.60
2019-06-27T11:43:22.004Z,25.50
2019-06-27T11:45:51.717Z,25.89
2019-06-27T11:48:21.617Z,25.98
2019-06-27T11:50:51.485Z,26.28
2019-06-27T11:53:21.292Z,26.71
2019-06-27T11:55:51.092Z,26.08
2019-06-27T11:58:20.934Z,25.98
2019-06-27T12:00:50.748Z,25.81
2019-06-27T12:03:20.650Z,26.09
2019-06-27T12:05:50.479Z,25.82
2019-06-27T12:08:20.265Z,25.62
2019-06-27T12:10:50.258Z,25.92
2019-06-27T12:13:20.236Z,26.10
2019-06-27T12:15:51.663Z,26.26
2019-06-27T12:18:21.742Z,26.04
2019-06-27T12:20:51.521Z,26.62
2019-06-27T12:23:21.366Z,26.76
2019-06-27T12:25:51.370Z,26.40
2019-06-27T12:28:21.314Z,26.39
2019-06-27T12:30:50.990Z,26.64
2019-06-27T12:33:21.165Z,26.32
2019-06-27T12:35:50.895Z,26.63
2019-06-27T12:38:20.698Z,26.59
2019-06-27T12:40:50.538Z,26.96
2019-06-27T12:43:20.241Z,26.95
2019-06-27T12:45:50.242Z,26.67
2019-06-27T12:48:20.067Z,26.94
2019-06-27T12:50:49.886Z,26.77
2019-06-27T12:53:19.997Z,26.31
2019-06-27T12:55:51.234Z,27.05
2019-06-27T12:58:21.178Z,27.33
2019-06-27T13:00:51.120Z,26.60
2019-06-27T13:03:21.098Z,26.71
2019-06-27T13:05:51.140Z,26.99
2019-06-27T13:08:21.142Z,27.10
2019-06-27T13:10:51.372Z,27.68
2019-06-27T13:13:21.389Z,27.59
2019-06-27T13:15:51.743Z,27.45
2019-06-27T13:18:21.734Z,27.36
2019-06-27T13:20:57.908Z,27.53
2019-06-27T13:23:23.636Z,27.50
2019-06-27T13:25:53.685Z,27.62
2019-06-27T13:28:23.864Z,27.63
2019-06-27T13:30:54.863Z,28.06
2019-06-27T13:33:24.996Z,27.62
2019-06-27T13:35:55.076Z,27.32
2019-06-27T13:38:25.024Z,27.02
2019-06-27T13:40:54.969Z,27.22
2019-06-27T13:43:25.227Z,27.31
2019-06-27T13:45:55.212Z,26.99
2019-06-27T13:48:25.152Z,27.12
2019-06-27T13:50:57.826Z,27.64
2019-06-27T13:53:27.856Z,27.13
2019-06-27T13:55:58.133Z,27.68
2019-06-27T13:58:28.351Z,27.50
2019-06-27T14:00:58.417Z,27.59
2019-06-27T14:03:28.460Z,27.52
2019-06-27T14:05:58.456Z,27.23
2019-06-27T14:08:28.407Z,27.56
2019-06-27T14:10:58.543Z,27.48
2019-06-27T14:13:28.403Z,27.27
2019-06-27T14:15:58.386Z,27.63
2019-06-27T14:18:28.440Z,27.83
2019-06-27T14:20:58.439Z,28.03
2019-06-27T14:23:31.137Z,27.93
2019-06-27T14:26:01.066Z,27.50
2019-06-27T14:28:30.777Z,27.99
2019-06-27T14:31:00.810Z,27.58
2019-06-27T14:33:30.574Z,27.93
2019-06-27T14:36:00.557Z,28.05
2019-06-27T14:38:30.494Z,28.35
2019-06-27T14:41:00.707Z,27.45
2019-06-27T14:43:30.567Z,27.56
2019-06-27T14:46:00.592Z,27.27
2019-06-27T14:48:30.602Z,27.36
2019-06-27T14:51:00.634Z,27.28
2019-06-27T14:53:30.546Z,27.23
2019-06-27T14:56:00.550Z,27.44
2019-06-27T14:58:33.418Z,27.60
2019-06-27T15:01:06.988Z,27.94
2019-06-27T15:03:34.264Z,28.00
2019-06-27T15:06:04.265Z,27.46
2019-06-27T15:08:34.139Z,27.62
2019-06-27T15:11:03.990Z,27.51
2019-06-27T15:13:36.014Z,27.38
2019-06-27T15:16:11.925Z,27.86
2019-06-27T15:18:37.624Z,27.63
2019-06-27T15:21:07.551Z,27.24
2019-06-27T15:23:37.640Z,27.14
2019-06-27T15:26:07.426Z,27.61
2019-06-27T15:28:37.105Z,27.53
2019-06-27T15:31:06.916Z,27.77
2019-06-27T15:33:36.642Z,27.04
2019-06-27T15:36:06.542Z,26.98
2019-06-27T15:38:36.416Z,27.00
2019-06-27T15:41:06.251Z,27.29
2019-06-27T15:43:36.021Z,26.83
2019-06-27T15:46:05.920Z,26.95
2019-06-27T15:48:35.752Z,26.54
2019-06-27T15:51:05.605Z,26.66
2019-06-27T15:53:35.445Z,26.56
2019-06-27T15:56:05.316Z,26.87
2019-06-27T15:58:35.053Z,26.97
2019-06-27T16:01:04.895Z,26.89
2019-06-27T16:03:34.792Z,26.95
2019-06-27T16:06:10.231Z,26.82
2019-06-27T16:08:36.038Z,27.11
2019-06-27T16:11:11.914Z,27.04
2019-06-27T16:13:41.617Z,26.91
2019-06-27T16:16:12.696Z,26.77
2019-06-27T16:18:46.612Z,26.65
2019-06-27T16:21:16.326Z,26.83
2019-06-27T16:23:46.118Z,26.42
2019-06-27T16:29:03.887Z,26.45
2019-06-27T16:31:45.929Z,26.14
2019-06-27T16:34:16.835Z,26.30
2019-06-27T16:36:51.774Z,26.35
2019-06-27T16:39:21.612Z,26.57
2019-06-27T16:41:51.849Z,26.53
2019-06-27T16:44:22.100Z,26.52
2019-06-27T16:46:52.248Z,26.22
2019-06-27T16:49:22.235Z,25.89
2019-06-27T16:51:52.317Z,25.94
2019-06-27T16:54:23.067Z,25.80
2019-06-27T17:02:30.773Z,25.87
2019-06-27T17:05:00.887Z,25.75
2019-06-27T17:07:36.209Z,25.71
2019-06-27T17:10:07.126Z,25.96
2019-06-27T17:12:37.124Z,25.99
2019-06-27T17:15:07.202Z,25.89
2019-06-27T17:17:37.119Z,25.77
2019-06-27T17:20:07.116Z,25.41
2019-06-27T17:22:37.505Z,25.48
2019-06-27T17:25:08.526Z,25.35
2019-06-27T17:27:46.493Z,25.32
2019-06-27T17:30:18.748Z,25.16
2019-06-27T17:32:48.701Z,24.94
2019-06-27T17:35:18.577Z,24.64
2019-06-27T17:37:54.404Z,24.66
2019-06-27T17:40:26.516Z,24.64
2019-06-27T17:42:57.048Z,24.87
2019-06-27T17:45:27.048Z,24.81
2019-06-27T17:47:59.538Z,24.63
2019-06-27T17:50:29.525Z,24.59
2019-06-27T17:52:59.521Z,24.32
2019-06-27T17:55:29.341Z,24.38
2019-06-27T17:58:00.037Z,24.32
2019-06-27T18:00:30.365Z,24.25
2019-06-27T18:03:00.922Z,24.07
2019-06-27T18:05:30.933Z,24.02
2019-06-27T18:08:02.963Z,23.95
2019-06-27T18:10:32.884Z,23.84
2019-06-27T18:13:02.693Z,23.85
2019-06-27T18:15:33.063Z,23.74
2019-06-27T18:18:03.018Z,23.66
2019-06-27T18:20:33.054Z,23.63
2019-06-27T18:23:03.050Z,23.57
2019-06-27T18:25:32.919Z,23.62
2019-06-27T18:28:02.828Z,23.49
2019-06-27T18:30:33.961Z,23.45
2019-06-27T18:33:04.267Z,23.38
2019-06-27T18:35:34.349Z,23.20
2019-06-27T18:38:04.412Z,23.13
2019-06-27T18:40:34.201Z,23.06
2019-06-27T18:43:04.072Z,23.03
2019-06-27T18:45:34.018Z,22.95
2019-06-27T18:48:03.933Z,22.98
2019-06-27T18:50:34.130Z,22.94
2019-06-27T18:53:04.084Z,22.81
2019-06-27T18:55:34.060Z,22.68
2019-06-27T18:58:04.084Z,22.65
2019-06-27T19:00:34.012Z,22.76
2019-06-27T19:03:03.998Z,22.65
2019-06-27T19:05:33.924Z,22.71
2019-06-27T19:08:03.991Z,22.55
2019-06-27T19:10:33.907Z,22.41
2019-06-27T19:13:04.032Z,22.17
2019-06-27T19:15:33.920Z,22.17
2019-06-27T19:18:03.892Z,22.08
2019-06-27T19:20:39.222Z,22.01
2019-06-27T19:23:29.393Z,21.89
2019-06-27T19:26:00.534Z,21.71
2019-06-27T19:28:30.539Z,21.68
2019-06-27T19:31:01.464Z,21.77
2019-06-27T19:33:31.222Z,21.68
2019-06-27T19:36:03.430Z,21.53
2019-06-27T19:38:33.617Z,21.47
2019-06-27T19:41:04.169Z,21.27
2019-06-27T19:43:34.024Z,21.19
2019-06-27T19:46:04.056Z,21.13
2019-06-27T19:48:34.115Z,21.01
2019-06-27T19:51:03.973Z,21.00
2019-06-27T19:53:33.923Z,21.01
2019-06-27T19:56:04.462Z,20.82
2019-06-27T19:58:34.769Z,20.85
2019-06-27T20:01:04.551Z,20.74
2019-06-27T20:03:34.800Z,20.68
2019-06-27T20:06:06.949Z,20.69
2019-06-27T20:08:36.903Z,20.69
2019-06-27T20:11:06.764Z,20.45
2019-06-27T20:13:36.685Z,20.52
2019-06-27T20:16:07.091Z,20.39
2019-06-27T20:18:37.157Z,20.40
2019-06-27T20:21:06.968Z,20.32
2019-06-27T20:23:36.987Z,20.17
2019-06-27T20:26:07.057Z,20.19
2019-06-27T20:28:36.859Z,20.33
2019-06-27T20:31:06.746Z,20.37
2019-06-27T20:33:36.526Z,20.31
2019-06-27T20:36:07.358Z,20.18
2019-06-27T20:38:44.040Z,20.04
2019-06-27T20:41:13.816Z,19.96
2019-06-27T20:43:43.762Z,19.75
2019-06-27T20:46:13.653Z,19.88
2019-06-27T20:48:43.772Z,19.86
2019-06-27T20:51:19.158Z,19.94
2019-06-27T20:53:48.920Z,20.00
2019-06-27T20:56:18.895Z,19.88
2019-06-27T20:58:48.805Z,19.81
2019-06-27T21:01:19.885Z,19.74
2019-06-27T21:03:50.904Z,19.85
2019-06-27T21:06:21.046Z,19.92
2019-06-27T21:08:52.083Z,19.66
2019-06-27T21:11:22.447Z,19.62
2019-06-27T21:13:52.396Z,19.42
2019-06-27T21:16:22.593Z,19.38
2019-06-27T21:18:53.032Z,19.42
2019-06-27T21:21:23.114Z,19.23
2019-06-27T21:23:53.129Z,19.16
2019-06-27T21:26:23.257Z,19.16
2019-06-27T21:28:54.061Z,19.08
2019-06-27T21:31:24.069Z,19.20
2019-06-27T21:33:54.179Z,18.93
2019-06-27T21:36:24.147Z,18.78
2019-06-27T21:39:07.002Z,18.69
2019-06-27T21:41:27.048Z,18.74
2019-06-27T21:43:56.969Z,18.70
2019-06-27T21:46:29.022Z,18.52
2019-06-27T21:49:06.109Z,18.30
2019-06-27T21:51:36.303Z,18.31
2019-06-27T21:54:06.607Z,18.27
2019-06-27T21:56:36.713Z,18.39
2019-06-27T21:59:06.671Z,18.35
2019-06-27T22:01:36.609Z,18.22
2019-06-27T22:04:07.976Z,18.12
2019-06-27T22:06:37.856Z,18.10
2019-06-27T22:09:23.541Z,17.82
2019-06-27T22:11:40.580Z,18.15
2019-06-27T22:14:12.369Z,18.04
2019-06-27T22:16:42.484Z,17.96
2019-06-27T22:19:12.686Z,17.78
2019-06-27T22:21:44.220Z,17.73
2019-06-27T22:24:14.961Z,17.82
2019-06-27T22:26:45.518Z,17.60
2019-06-27T22:29:15.738Z,17.74
2019-06-27T22:31:45.614Z,17.54
2019-06-27T22:34:15.440Z,17.77
2019-06-27T22:36:47.528Z,17.76
2019-06-27T22:39:40.328Z,17.66
2019-06-27T22:42:24.958Z,17.49
2019-06-27T22:45:12.375Z,17.41
2019-06-27T22:47:59.783Z,17.21
2019-06-27T22:50:50.538Z,17.12
2019-06-27T22:53:22.689Z,17.40
2019-06-27T22:55:56.152Z,17.39
2019-06-27T22:58:26.301Z,17.43
2019-06-27T23:00:56.085Z,17.68
2019-06-27T23:03:27.838Z,18.04
2019-06-27T23:06:01.034Z,17.20
2019-06-27T23:08:31.084Z,17.28
2019-06-27T23:11:00.901Z,17.25
2019-06-27T23:13:38.370Z,16.95
2019-06-27T23:16:05.312Z,17.04
2019-06-27T23:18:35.170Z,17.41
2019-06-27T23:21:04.990Z,17.58
2019-06-27T23:23:34.978Z,17.08
2019-06-27T23:26:04.799Z,17.01
2019-06-27T23:28:34.558Z,16.85
2019-06-27T23:31:04.478Z,16.58
2019-06-27T23:33:34.325Z,16.94
2019-06-27T23:36:04.163Z,16.84
2019-06-27T23:38:33.852Z,16.76
2019-06-27T23:41:05.150Z,16.76
2019-06-27T23:43:34.893Z,16.37
2019-06-27T23:46:04.754Z,16.67
2019-06-27T23:48:34.732Z,17.03
2019-06-27T23:51:04.472Z,16.94
2019-06-27T23:53:34.186Z,16.89
2019-06-27T23:56:04.166Z,16.76
2019-06-27T23:58:33.979Z,16.79
